createdAt,value
2018-01-15T00:00:38.941Z,102067.25
2018-01-15T00:03:07.283Z,102066.53
2018-01-15T00:05:35.748Z,102067.03
2018-01-15T00:08:04.167Z,102053.48
2018-01-15T00:10:32.554Z,102053.07
2018-01-15T00:13:00.862Z,102043.27
2018-01-15T00:15:29.180Z,102041.82
2018-01-15T00:17:57.588Z,102041.94
2018-01-15T00:20:25.933Z,102049.92
2018-01-15T00:22:54.260Z,102040.73
2018-01-15T00:25:22.582Z,102042.64
2018-01-15T00:27:51.689Z,102040.19
2018-01-15T00:30:20.028Z,102029.84
2018-01-15T00:32:48.424Z,102025.35
2018-01-15T00:35:17.543Z,102027.00
2018-01-15T00:37:45.907Z,102017.91
2018-01-15T00:40:15.286Z,102020.84
2018-01-15T00:42:43.916Z,102013.07
2018-01-15T00:45:12.245Z,102019.04
2018-01-15T00:47:40.602Z,102016.27
2018-01-15T00:50:09.482Z,102016.94
2018-01-15T00:52:37.941Z,102019.02
2018-01-15T00:55:06.326Z,102011.91
2018-01-15T00:57:34.642Z,102002.38
2018-01-15T01:00:02.974Z,101988.08
2018-01-15T01:02:32.206Z,101987.59
2018-01-15T01:05:00.558Z,101978.86
2018-01-15T01:07:28.903Z,101966.03
2018-01-15T01:09:57.240Z,101954.92
2018-01-15T01:12:25.551Z,101951.92
2018-01-15T01:14:53.929Z,101956.66
2018-01-15T01:17:22.294Z,101956.98
2018-01-15T01:19:50.649Z,101942.98
2018-01-15T01:22:18.961Z,101937.88
2018-01-15T01:24:47.834Z,101937.48
2018-01-15T01:27:16.126Z,101932.78
2018-01-15T01:29:44.465Z,101928.45
2018-01-15T01:32:12.961Z,101927.00
2018-01-15T01:34:41.260Z,101914.73
2018-01-15T01:37:09.571Z,101922.45
2018-01-15T01:42:12.398Z,101908.97
2018-01-15T01:44:40.827Z,101908.55
2018-01-15T01:47:09.135Z,101902.70
2018-01-15T01:49:38.247Z,101898.19
2018-01-15T01:52:06.598Z,101903.27
2018-01-15T01:54:34.950Z,101887.73
2018-01-15T01:57:03.272Z,101887.55
2018-01-15T01:59:32.382Z,101877.92
2018-01-15T02:02:00.684Z,101870.24
2018-01-15T02:04:28.993Z,101866.62
2018-01-15T02:06:57.652Z,101859.30
2018-01-15T02:09:26.723Z,101851.82
2018-01-15T02:11:55.048Z,101840.95
2018-01-15T02:14:23.408Z,101836.75
2018-01-15T02:16:51.749Z,101832.17
2018-01-15T02:19:20.059Z,101830.07
2018-01-15T02:21:48.444Z,101818.80
2018-01-15T02:24:17.561Z,101824.68
2018-01-15T02:26:45.871Z,101816.57
2018-01-15T02:29:14.858Z,101819.45
2018-01-15T02:31:43.968Z,101806.95
2018-01-15T02:34:12.296Z,101807.64
2018-01-15T02:36:40.648Z,101808.59
2018-01-15T02:39:08.970Z,101800.35
2018-01-15T02:41:37.294Z,101800.04
2018-01-15T02:44:05.633Z,101792.75
2018-01-15T02:46:33.965Z,101792.51
2018-01-15T02:49:02.304Z,101785.27
2018-01-15T02:51:30.861Z,101794.62
2018-01-15T02:53:59.205Z,101794.46
2018-01-15T02:56:27.623Z,101783.84
2018-01-15T02:58:55.981Z,101789.53
2018-01-15T03:01:24.375Z,101794.19
2018-01-15T03:03:52.864Z,101784.98
2018-01-15T03:06:21.205Z,101783.69
2018-01-15T03:08:49.526Z,101777.71
2018-01-15T03:11:17.897Z,101766.97
2018-01-15T03:13:46.857Z,101751.67
2018-01-15T03:16:15.197Z,101761.54
2018-01-15T03:18:44.267Z,101742.83
2018-01-15T03:21:12.755Z,101745.77
2018-01-15T03:23:41.232Z,101743.49
2018-01-15T03:26:09.575Z,101728.44
2018-01-15T03:28:37.974Z,101720.74
2018-01-15T03:31:06.472Z,101717.47
2018-01-15T03:33:34.952Z,101713.47
2018-01-15T03:36:03.368Z,101712.72
2018-01-15T03:38:32.530Z,101701.17
2018-01-15T03:41:00.910Z,101691.68
2018-01-15T03:43:29.392Z,101689.84
2018-01-15T03:45:57.814Z,101684.37
2018-01-15T03:48:26.152Z,101687.00
2018-01-15T03:50:54.582Z,101675.74
2018-01-15T03:53:22.941Z,101679.59
2018-01-15T03:55:52.109Z,101671.77
2018-01-15T03:58:21.205Z,101663.19
2018-01-15T04:00:49.588Z,101666.93
2018-01-15T04:03:17.968Z,101656.34
2018-01-15T04:05:46.445Z,101645.58
2018-01-15T04:08:14.764Z,101638.57
2018-01-15T04:10:43.079Z,101643.78
2018-01-15T04:13:12.198Z,101634.07
2018-01-15T04:15:40.679Z,101623.69
2018-01-15T04:18:09.061Z,101620.30
2018-01-15T04:20:38.287Z,101622.73
2018-01-15T04:23:07.434Z,101618.73
2018-01-15T04:25:35.917Z,101614.06
2018-01-15T04:28:04.322Z,101614.91
2018-01-15T04:30:32.671Z,101599.09
2018-01-15T04:33:01.177Z,101608.66
2018-01-15T04:35:29.556Z,101606.44
2018-01-15T04:37:57.938Z,101589.93
2018-01-15T04:40:26.244Z,101581.20
2018-01-15T04:42:55.313Z,101589.56
2018-01-15T04:45:23.752Z,101567.66
2018-01-15T04:47:52.062Z,101569.45
2018-01-15T04:50:20.563Z,101569.61
2018-01-15T04:52:48.873Z,101561.94
2018-01-15T04:55:17.169Z,101559.31
2018-01-15T04:57:45.496Z,101553.48
2018-01-15T05:00:13.865Z,101548.86
2018-01-15T05:02:42.259Z,101546.63
2018-01-15T05:05:11.444Z,101534.83
2018-01-15T05:07:40.742Z,101537.09
2018-01-15T05:10:09.224Z,101523.80
2018-01-15T05:12:37.708Z,101521.05
2018-01-15T05:15:06.196Z,101521.44
2018-01-15T05:17:34.637Z,101511.37
2018-01-15T05:20:03.058Z,101510.55
2018-01-15T05:22:31.475Z,101518.27
2018-01-15T05:24:59.807Z,101514.83
2018-01-15T05:27:28.697Z,101507.58
2018-01-15T05:29:56.994Z,101507.22
2018-01-15T05:32:25.359Z,101502.45
2018-01-15T05:34:53.772Z,101497.38
2018-01-15T05:37:23.036Z,101494.98
2018-01-15T05:39:51.444Z,101489.02
2018-01-15T05:42:19.821Z,101490.27
2018-01-15T05:44:48.909Z,101480.75
2018-01-15T05:47:18.030Z,101476.95
2018-01-15T05:49:46.951Z,101469.58
2018-01-15T05:52:15.363Z,101467.66
2018-01-15T05:54:43.710Z,101462.47
2018-01-15T05:57:12.187Z,101457.20
2018-01-15T05:59:40.501Z,101453.61
2018-01-15T06:02:08.884Z,101449.39
2018-01-15T06:04:37.284Z,101439.72
2018-01-15T06:07:06.419Z,101434.50
2018-01-15T06:09:34.732Z,101446.50
2018-01-15T06:12:03.507Z,101446.03
2018-01-15T06:14:31.893Z,101448.16
2018-01-15T06:17:00.226Z,101446.09
2018-01-15T06:19:28.567Z,101441.58
2018-01-15T06:21:56.915Z,101433.44
2018-01-15T06:24:25.249Z,101427.11
2018-01-15T06:26:54.487Z,101425.69
2018-01-15T06:29:22.973Z,101425.08
2018-01-15T06:31:51.481Z,101416.20
2018-01-15T06:34:20.103Z,101414.70
2018-01-15T06:36:48.461Z,101411.51
2018-01-15T06:39:17.575Z,101404.91
2018-01-15T06:41:46.683Z,101402.89
2018-01-15T06:44:15.220Z,101390.27
2018-01-15T06:46:43.615Z,101390.48
2018-01-15T06:49:12.708Z,101382.23
2018-01-15T06:51:41.038Z,101378.35
2018-01-15T06:54:09.346Z,101371.53
2018-01-15T06:56:37.739Z,101372.48
2018-01-15T06:59:06.052Z,101373.13
2018-01-15T07:01:34.414Z,101356.48
2018-01-15T07:04:02.783Z,101354.38
2018-01-15T07:06:31.887Z,101350.98
2018-01-15T07:09:00.986Z,101345.75
2018-01-15T07:11:30.117Z,101346.65
2018-01-15T07:13:58.430Z,101339.16
2018-01-15T07:16:26.789Z,101342.99
2018-01-15T07:18:55.498Z,101340.50
2018-01-15T07:21:23.849Z,101340.80
2018-01-15T07:23:52.168Z,101333.78
2018-01-15T07:26:21.282Z,101328.03
2018-01-15T07:28:50.387Z,101321.75
2018-01-15T07:31:18.695Z,101316.59
2018-01-15T07:33:47.906Z,101316.23
2018-01-15T07:36:16.209Z,101327.48
2018-01-15T07:38:44.566Z,101319.22
2018-01-15T07:41:13.226Z,101314.67
2018-01-15T07:43:41.558Z,101305.88
2018-01-15T07:46:09.896Z,101308.98
2018-01-15T07:48:38.217Z,101300.52
2018-01-15T07:51:06.523Z,101295.09
2018-01-15T07:53:34.863Z,101288.47
2018-01-15T07:56:03.990Z,101285.91
2018-01-15T07:58:33.085Z,101271.13
2018-01-15T08:01:02.153Z,101263.33
2018-01-15T08:03:30.900Z,101263.12
2018-01-15T08:05:59.231Z,101260.55
2018-01-15T08:08:27.555Z,101259.88
2018-01-15T08:10:55.963Z,101250.33
2018-01-15T08:13:24.315Z,101252.67
2018-01-15T08:15:52.621Z,101245.77
2018-01-15T08:18:20.978Z,101248.34
2018-01-15T08:20:49.332Z,101248.82
2018-01-15T08:23:17.683Z,101237.75
2018-01-15T08:25:47.279Z,101231.02
2018-01-15T08:28:15.592Z,101228.80
2018-01-15T08:30:43.901Z,101227.88
2018-01-15T08:33:12.253Z,101213.69
2018-01-15T08:35:40.547Z,101203.62
2018-01-15T08:38:08.840Z,101192.61
2018-01-15T08:40:37.169Z,101180.48
2018-01-15T08:43:05.493Z,101183.58
2018-01-15T08:45:33.846Z,101178.88
2018-01-15T08:48:02.599Z,101172.48
2018-01-15T08:50:30.947Z,101173.16
2018-01-15T08:52:59.244Z,101163.67
2018-01-15T08:55:27.590Z,101161.42
2018-01-15T08:57:55.896Z,101158.38
2018-01-15T09:00:24.216Z,101148.17
2018-01-15T09:02:52.593Z,101153.80
2018-01-15T09:05:21.680Z,101148.14
2018-01-15T09:07:50.816Z,101141.45
2018-01-15T09:10:19.443Z,101144.59
2018-01-15T09:12:47.752Z,101125.66
2018-01-15T09:15:16.061Z,101125.20
2018-01-15T09:17:44.435Z,101127.80
2018-01-15T09:20:12.764Z,101124.17
2018-01-15T09:22:41.092Z,101123.33
2018-01-15T09:25:09.442Z,101109.48
2018-01-15T09:27:37.780Z,101108.94
2018-01-15T09:30:06.089Z,101100.25
2018-01-15T09:32:35.682Z,101090.34
2018-01-15T09:35:03.976Z,101070.13
2018-01-15T09:37:32.304Z,101060.31
2018-01-15T09:40:00.650Z,101066.95
2018-01-15T09:42:28.976Z,101061.50
2018-01-15T09:44:57.303Z,101058.58
2018-01-15T09:47:25.652Z,101068.67
2018-01-15T09:49:54.764Z,101051.59
2018-01-15T09:52:23.828Z,101070.47
2018-01-15T09:54:52.427Z,101054.43
2018-01-15T09:57:20.722Z,101060.20
2018-01-15T09:59:49.035Z,101050.91
2018-01-15T10:02:17.386Z,101057.25
2018-01-15T10:04:45.716Z,101032.73
2018-01-15T10:07:14.060Z,101047.02
2018-01-15T10:09:42.394Z,101032.75
2018-01-15T10:12:10.706Z,101036.06
2018-01-15T10:14:39.799Z,101021.42
2018-01-15T10:17:08.341Z,101007.31
2018-01-15T10:19:36.685Z,101006.46
2018-01-15T10:22:05.004Z,100992.20
2018-01-15T10:24:33.386Z,100988.70
2018-01-15T10:27:01.711Z,100983.95
2018-01-15T10:29:30.006Z,100974.34
2018-01-15T10:31:58.368Z,100969.92
2018-01-15T10:34:26.709Z,100964.55
2018-01-15T10:36:55.044Z,100961.72
2018-01-15T10:39:23.684Z,100951.41
2018-01-15T10:41:52.072Z,100951.77
2018-01-15T10:44:20.404Z,100948.81
2018-01-15T10:46:48.772Z,100950.57
2018-01-15T10:49:17.079Z,100940.95
2018-01-15T10:51:45.416Z,100924.28
2018-01-15T10:54:13.784Z,100913.72
2018-01-15T10:56:42.112Z,100903.19
2018-01-15T10:59:10.443Z,100895.70
2018-01-15T11:01:39.202Z,100889.78
2018-01-15T11:04:07.517Z,100879.11
2018-01-15T11:06:35.890Z,100879.61
2018-01-15T11:09:04.252Z,100868.75
2018-01-15T11:11:32.662Z,100849.44
2018-01-15T11:14:00.948Z,100837.35
2018-01-15T11:16:29.310Z,100838.03
2018-01-15T11:18:57.709Z,100814.77
2018-01-15T11:21:26.052Z,100808.12
2018-01-15T11:23:54.576Z,100797.81
2018-01-15T11:26:22.884Z,100798.14
2018-01-15T11:28:51.967Z,100779.13
2018-01-15T11:31:20.313Z,100778.72
2018-01-15T11:33:48.637Z,100770.84
2018-01-15T11:36:16.962Z,100759.89
2018-01-15T11:38:45.348Z,100759.02
2018-01-15T11:41:13.668Z,100758.87
2018-01-15T11:43:41.994Z,100745.50
2018-01-15T11:46:10.418Z,100742.97
2018-01-15T11:48:38.739Z,100734.58
2018-01-15T11:51:07.044Z,100732.53
2018-01-15T11:53:35.381Z,100718.61
2018-01-15T11:56:04.531Z,100726.86
2018-01-15T11:58:32.896Z,100712.09
2018-01-15T12:01:01.230Z,100709.73
2018-01-15T12:03:29.576Z,100695.63
2018-01-15T12:05:57.926Z,100696.61
2018-01-15T12:08:26.779Z,100686.72
2018-01-15T12:10:55.872Z,100681.86
2018-01-15T12:13:24.974Z,100685.17
2018-01-15T12:15:53.305Z,100676.38
2018-01-15T12:18:21.633Z,100684.33
2018-01-15T12:20:49.985Z,100663.22
2018-01-15T12:23:19.144Z,100663.80
2018-01-15T12:25:47.470Z,100654.08
2018-01-15T12:28:16.561Z,100642.33
2018-01-15T12:30:46.191Z,100635.02
2018-01-15T12:33:14.548Z,100638.67
2018-01-15T12:35:42.895Z,100611.95
2018-01-15T12:38:12.196Z,100615.06
2018-01-15T12:40:40.520Z,100611.16
2018-01-15T12:43:08.828Z,100601.64
2018-01-15T12:45:37.158Z,100596.11
2018-01-15T12:48:06.285Z,100595.43
2018-01-15T12:50:34.617Z,100592.05
2018-01-15T12:53:03.392Z,100590.44
2018-01-15T12:55:32.077Z,100572.41
2018-01-15T12:58:01.224Z,100561.26
2018-01-15T13:00:29.630Z,100548.61
2018-01-15T13:02:58.002Z,100549.77
2018-01-15T13:05:44.026Z,100546.49
2018-01-15T13:08:18.180Z,100544.60
2018-01-15T13:10:46.897Z,100532.14
2018-01-15T13:13:15.231Z,100525.37
2018-01-15T13:15:43.550Z,100539.34
2018-01-15T13:18:11.911Z,100516.13
2018-01-15T13:20:40.269Z,100509.59
2018-01-15T13:23:08.630Z,100506.05
2018-01-15T13:25:36.990Z,100507.34
2018-01-15T13:28:05.348Z,100484.47
2018-01-15T13:30:33.657Z,100481.98
2018-01-15T13:33:02.497Z,100462.11
2018-01-15T13:35:31.565Z,100458.20
2018-01-15T13:37:59.884Z,100459.97
2018-01-15T13:40:28.289Z,100448.36
2018-01-15T13:42:56.594Z,100438.70
2018-01-15T13:45:24.919Z,100426.96
2018-01-15T13:47:53.262Z,100431.56
2018-01-15T13:50:22.393Z,100423.50
2018-01-15T13:52:50.905Z,100411.41
2018-01-15T13:55:19.401Z,100406.95
2018-01-15T13:57:47.757Z,100401.30
2018-01-15T14:00:16.080Z,100396.08
2018-01-15T14:02:44.443Z,100382.44
2018-01-15T14:05:12.770Z,100375.72
2018-01-15T14:07:41.104Z,100365.25
2018-01-15T14:10:09.465Z,100362.70
2018-01-15T14:12:37.800Z,100351.41
2018-01-15T14:15:06.931Z,100354.66
2018-01-15T14:17:35.881Z,100349.43
2018-01-15T14:20:04.961Z,100328.91
2018-01-15T14:22:33.312Z,100321.58
2018-01-15T14:25:01.676Z,100311.45
2018-01-15T14:27:30.050Z,100310.77
2018-01-15T14:29:58.433Z,100299.05
2018-01-15T14:32:26.784Z,100289.69
2018-01-15T14:34:55.118Z,100271.41
2018-01-15T14:37:23.437Z,100267.93
2018-01-15T14:39:52.708Z,100252.68
2018-01-15T14:42:21.109Z,100235.58
2018-01-15T14:44:50.211Z,100233.59
2018-01-15T14:47:18.601Z,100226.27
2018-01-15T14:49:47.781Z,100220.50
2018-01-15T14:52:16.188Z,100213.01
2018-01-15T14:54:44.543Z,100210.72
2018-01-15T14:57:12.861Z,100188.70
2018-01-15T14:59:41.175Z,100189.03
2018-01-15T15:02:09.908Z,100183.35
2018-01-15T15:04:38.236Z,100188.49
2018-01-15T15:07:06.555Z,100181.88
2018-01-15T15:09:34.940Z,100171.84
2018-01-15T15:12:03.275Z,100180.41
2018-01-15T15:14:31.564Z,100164.34
2018-01-15T15:17:00.731Z,100154.64
2018-01-15T15:19:29.052Z,100149.58
2018-01-15T15:21:58.146Z,100143.36
2018-01-15T15:24:27.973Z,100138.05
2018-01-15T15:26:56.302Z,100133.06
2018-01-15T15:29:24.674Z,100128.31
2018-01-15T15:31:53.124Z,100126.89
2018-01-15T15:34:21.464Z,100134.39
2018-01-15T15:36:49.792Z,100119.64
2018-01-15T15:39:18.113Z,100122.33
2018-01-15T15:41:46.396Z,100109.31
2018-01-15T15:44:14.723Z,100117.80
2018-01-15T15:46:43.178Z,100117.09
2018-01-15T15:49:12.247Z,100105.41
2018-01-15T15:51:41.343Z,100111.11
2018-01-15T15:54:09.715Z,100094.34
2018-01-15T15:56:38.060Z,100104.45
2018-01-15T15:59:06.376Z,100098.22
2018-01-15T16:01:34.760Z,100085.84
2018-01-15T16:04:03.087Z,100075.67
2018-01-15T16:06:31.420Z,100081.20
2018-01-15T16:08:59.856Z,100074.05
2018-01-15T16:11:28.180Z,100077.01
2018-01-15T16:13:57.274Z,100065.94
2018-01-15T16:16:26.364Z,100071.49
2018-01-15T16:18:54.670Z,100053.44
2018-01-15T16:21:23.771Z,100053.29
2018-01-15T16:23:52.117Z,100045.06
2018-01-15T16:26:20.468Z,100043.97
2018-01-15T16:28:48.797Z,100034.98
2018-01-15T16:31:18.414Z,100026.41
2018-01-15T16:33:46.740Z,100046.98
2018-01-15T16:36:15.117Z,100021.91
2018-01-15T16:38:43.447Z,100010.72
2018-01-15T16:41:11.781Z,100007.30
2018-01-15T16:43:40.077Z,100001.77
2018-01-15T16:46:08.436Z,99992.23
2018-01-15T16:48:36.797Z,99983.38
2018-01-15T16:51:05.101Z,99972.81
2018-01-15T16:53:33.726Z,99982.33
2018-01-15T16:56:02.858Z,99955.00
2018-01-15T16:58:31.157Z,99950.88
2018-01-15T17:01:00.350Z,99944.61
2018-01-15T17:03:28.671Z,99936.91
2018-01-15T17:05:56.965Z,99931.07
2018-01-15T17:08:25.336Z,99918.22
2018-01-15T17:10:53.639Z,99902.70
2018-01-15T17:13:22.000Z,99910.12
2018-01-15T17:15:50.633Z,99896.67
2018-01-15T17:18:18.952Z,99891.56
2018-01-15T17:20:47.262Z,99864.91
2018-01-15T17:23:15.581Z,99868.93
2018-01-15T17:25:43.950Z,99870.48
2018-01-15T17:28:12.274Z,99841.52
2018-01-15T17:30:41.071Z,99840.21
2018-01-15T17:33:09.389Z,99850.38
2018-01-15T17:35:37.733Z,99828.56
2018-01-15T17:38:06.303Z,99815.72
2018-01-15T17:40:34.628Z,99817.75
2018-01-15T17:43:02.987Z,99808.86
2018-01-15T17:45:31.328Z,99788.88
2018-01-15T17:48:00.449Z,99803.59
2018-01-15T17:50:28.759Z,99781.75
2018-01-15T17:52:57.146Z,99781.79
2018-01-15T17:55:25.504Z,99766.53
2018-01-15T17:57:53.835Z,99760.25
2018-01-15T18:00:23.333Z,99751.73
2018-01-15T18:02:51.675Z,99731.73
2018-01-15T18:05:19.977Z,99718.40
2018-01-15T18:07:48.329Z,99717.89
2018-01-15T18:10:16.666Z,99718.02
2018-01-15T18:12:44.983Z,99708.32
2018-01-15T18:15:13.377Z,99710.09
2018-01-15T18:17:41.693Z,99696.52
2018-01-15T18:20:10.024Z,99704.37
2018-01-15T18:22:38.498Z,99687.93
2018-01-15T18:25:06.797Z,99681.69
2018-01-15T18:27:35.111Z,99684.56
2018-01-15T18:30:04.209Z,99668.45
2018-01-15T18:32:33.256Z,99660.66
2018-01-15T18:35:01.572Z,99649.51
2018-01-15T18:37:30.662Z,99646.50
2018-01-15T18:39:59.716Z,99637.77
2018-01-15T18:42:28.044Z,99626.04
2018-01-15T18:44:57.229Z,99613.81
2018-01-15T18:47:25.546Z,99599.95
2018-01-15T18:49:53.871Z,99594.35
2018-01-15T18:52:22.195Z,99589.53
2018-01-15T18:54:50.558Z,99581.91
2018-01-15T18:57:18.867Z,99576.98
2018-01-15T18:59:47.201Z,99565.44
2018-01-15T19:02:16.288Z,99569.57
2018-01-15T19:04:44.590Z,99555.87
2018-01-15T19:07:14.085Z,99553.99
2018-01-15T19:09:43.151Z,99545.05
2018-01-15T19:12:11.468Z,99549.45
2018-01-15T19:14:40.625Z,99530.38
2018-01-15T19:17:08.977Z,99531.62
2018-01-15T19:19:37.294Z,99512.71
2018-01-15T19:22:05.626Z,99507.70
2018-01-15T19:24:33.942Z,99498.25
2018-01-15T19:27:02.237Z,99485.98
2018-01-15T19:29:31.041Z,99495.88
2018-01-15T19:32:00.123Z,99478.45
2018-01-15T19:34:30.874Z,99462.38
2018-01-15T19:37:00.013Z,99462.72
2018-01-15T19:39:28.349Z,99442.98
2018-01-15T19:41:56.683Z,99444.50
2018-01-15T19:47:40.631Z,99413.77
2018-01-15T19:50:14.376Z,99410.92
2018-01-15T19:52:48.152Z,99399.41
2018-01-15T19:55:22.026Z,99384.72
2018-01-15T19:57:55.848Z,99386.30
2018-01-15T20:00:29.759Z,99358.23
2018-01-15T20:03:03.609Z,99356.02
2018-01-15T20:05:37.375Z,99348.92
2018-01-15T20:08:11.201Z,99345.62
2018-01-15T20:10:44.496Z,99338.87
2018-01-15T20:13:12.813Z,99333.95
2018-01-15T20:15:41.152Z,99318.77
2018-01-15T20:18:10.584Z,99345.50
2018-01-15T20:20:38.914Z,99309.45
2018-01-15T20:23:07.237Z,99307.52
2018-01-15T20:25:35.612Z,99309.57
2018-01-15T20:28:03.962Z,99294.55
2018-01-15T20:30:32.291Z,99294.42
2018-01-15T20:33:01.430Z,99286.27
2018-01-15T20:35:29.758Z,99276.64
2018-01-15T20:37:58.123Z,99267.48
2018-01-15T20:40:26.734Z,99267.17
2018-01-15T20:42:55.845Z,99235.31
2018-01-15T20:45:24.160Z,99221.95
2018-01-15T20:47:52.533Z,99237.16
2018-01-15T20:50:21.068Z,99213.98
2018-01-15T20:52:49.437Z,99203.34
2018-01-15T20:55:18.565Z,99203.65
2018-01-15T20:57:46.947Z,99215.80
2018-01-15T21:00:15.309Z,99179.01
2018-01-15T21:02:44.834Z,99192.52
2018-01-15T21:05:13.177Z,99169.89
2018-01-15T21:07:42.269Z,99163.75
2018-01-15T21:10:10.642Z,99152.58
2018-01-15T21:12:38.975Z,99161.33
2018-01-15T21:15:07.300Z,99141.31
2018-01-15T21:17:35.640Z,99145.50
2018-01-15T21:20:03.965Z,99140.70
2018-01-15T21:22:32.295Z,99151.77
2018-01-15T21:25:00.749Z,99111.40
2018-01-15T21:27:29.818Z,99113.50
2018-01-15T21:29:58.127Z,99112.17
2018-01-15T21:32:26.486Z,99112.32
2018-01-15T21:34:54.809Z,99106.73
2018-01-15T21:37:23.133Z,99102.80
2018-01-15T21:39:51.461Z,99071.38
2018-01-15T21:42:19.788Z,99065.19
2018-01-15T21:44:48.108Z,99061.67
2018-01-15T21:47:16.619Z,99055.06
2018-01-15T21:49:44.961Z,99040.66
2018-01-15T21:52:13.328Z,99035.70
2018-01-15T21:54:41.698Z,99027.17
2018-01-15T21:57:10.778Z,99036.22
2018-01-15T21:59:39.073Z,99027.84
2018-01-15T22:02:08.164Z,99009.75
2018-01-15T22:04:37.292Z,99015.87
2018-01-15T22:07:05.621Z,99005.31
2018-01-15T22:09:34.178Z,99000.46
2018-01-15T22:12:02.528Z,98985.31
2018-01-15T22:14:30.876Z,98994.18
2018-01-15T22:16:59.216Z,98968.63
2018-01-15T22:19:27.517Z,98969.80
2018-01-15T22:21:55.885Z,98955.41
2018-01-15T22:24:24.274Z,98955.16
2018-01-15T22:26:52.632Z,98957.75
2018-01-15T22:29:20.964Z,98935.55
2018-01-15T22:31:50.195Z,98925.59
2018-01-15T22:34:18.533Z,98923.93
2018-01-15T22:36:46.884Z,98913.73
2018-01-15T22:39:15.218Z,98907.27
2018-01-15T22:41:43.590Z,98914.14
2018-01-15T22:44:11.914Z,98909.87
2018-01-15T22:46:40.254Z,98904.58
2018-01-15T22:49:08.676Z,98905.98
2018-01-15T22:51:36.968Z,98898.45
2018-01-15T22:54:05.389Z,98889.92
2018-01-15T22:56:33.684Z,98900.88
2018-01-15T22:59:01.987Z,98894.34
2018-01-15T23:01:30.337Z,98884.58
2018-01-15T23:03:58.632Z,98876.02
2018-01-15T23:06:26.963Z,98884.50
2018-01-15T23:08:55.327Z,98886.69
2018-01-15T23:11:24.396Z,98864.89
2018-01-15T23:13:52.699Z,98875.16
2018-01-15T23:16:22.125Z,98863.08
2018-01-15T23:18:50.447Z,98841.48
2018-01-15T23:21:18.780Z,98836.48
2018-01-15T23:23:47.137Z,98837.56
2018-01-15T23:26:15.563Z,98841.52
2018-01-15T23:28:43.942Z,98855.20
2018-01-15T23:31:12.312Z,98840.20
2018-01-15T23:33:40.636Z,98831.03
2018-01-15T23:36:08.949Z,98811.27
2018-01-15T23:38:37.388Z,98823.86
2018-01-15T23:41:05.711Z,98811.09
2018-01-15T23:43:34.781Z,98811.55
2018-01-15T23:46:03.281Z,98823.18
2018-01-15T23:48:31.632Z,98816.74
2018-01-15T23:50:59.934Z,98804.26
2018-01-15T23:53:29.055Z,98802.69
2018-01-15T23:55:57.415Z,98794.15
2018-01-15T23:58:25.735Z,98778.89
